Time;durP1;ratioP1;P1;durP2;ratioP2;P2;SDS_P1;SDS_P2;PMS_P1;PMS_P2;Temp;Humidity;BMP_temperature;BMP_pressure;BME280_temperature;BME280_humidity;BME280_pressure;Samples;Min_cycle;Max_cycle;Signal;HPM_P1;HPM_P2
2022/02/13 00:00:15;;;;;;;3.95;1.83;;;;;;;19.22;43.62;101897.72;5019322;28;20029;-46
2022/02/13 00:02:42;;;;;;;2.70;1.88;;;;;;;19.21;43.49;101901.34;5012926;28;20481;-45
2022/02/13 00:05:09;;;;;;;4.25;1.52;;;;;;;19.20;43.57;101900.53;5010037;28;20650;-40
2022/02/13 00:07:36;;;;;;;3.85;2.50;;;;;;;19.20;43.64;101891.78;5014646;28;20516;-45
2022/02/13 00:10:04;;;;;;;3.13;1.98;;;;;;;19.19;43.60;101896.25;5006892;28;20129;-46
2022/02/13 00:12:29;;;;;;;5.18;2.30;;;;;;;19.19;43.70;101901.53;5026025;28;20137;-44
2022/02/13 00:14:56;;;;;;;4.78;2.35;;;;;;;19.18;43.63;101894.59;5012977;28;20113;-43
2022/02/13 00:17:22;;;;;;;2.75;1.80;;;;;;;19.17;43.72;101890.28;5024990;28;20029;-42
2022/02/13 00:19:48;;;;;;;3.17;1.70;;;;;;;19.17;43.62;101889.47;5009803;28;20026;-44
2022/02/13 00:22:15;;;;;;;3.35;1.80;;;;;;;19.16;43.78;101888.66;5018451;28;20029;-41
2022/02/13 00:24:41;;;;;;;3.90;1.98;;;;;;;19.16;43.82;101882.53;5005552;28;20053;-45
2022/02/13 00:27:07;;;;;;;4.38;2.05;;;;;;;19.15;43.72;101881.72;5007729;28;20068;-48
2022/02/13 00:29:32;;;;;;;4.25;2.03;;;;;;;19.15;43.72;101876.44;5008730;28;20347;-45
2022/02/13 00:31:57;;;;;;;6.70;1.77;;;;;;;19.14;43.66;101876.59;5010046;28;20041;-49
2022/02/13 00:34:23;;;;;;;2.72;1.63;;;;;;;19.11;43.60;101864.53;5012563;28;20080;-44
2022/02/13 00:36:48;;;;;;;4.72;1.77;;;;;;;19.10;43.70;101870.81;5026743;28;20036;-48
2022/02/13 00:39:14;;;;;;;3.45;1.98;;;;;;;19.10;43.71;101873.47;5021491;28;20367;-48
2022/02/13 00:41:40;;;;;;;3.35;1.75;;;;;;;19.08;43.69;101870.16;5006364;28;20619;-42
2022/02/13 00:44:06;;;;;;;4.47;2.25;;;;;;;19.09;43.64;101860.41;5009012;28;20065;-45
2022/02/13 00:46:31;;;;;;;3.28;1.95;;;;;;;19.07;43.59;101862.41;5023608;28;20116;-46
2022/02/13 00:48:59;;;;;;;5.05;2.08;;;;;;;19.05;43.63;101854.63;5016078;28;20116;-47
2022/02/13 00:51:25;;;;;;;2.22;1.40;;;;;;;19.04;43.62;101855.63;5007002;28;20033;-41
2022/02/13 00:53:51;;;;;;;3.72;1.40;;;;;;;19.04;43.61;101854.81;5010703;28;20099;-43
2022/02/13 00:56:16;;;;;;;4.50;2.20;;;;;;;19.03;43.79;101861.06;5012731;28;20034;-43
2022/02/13 00:58:42;;;;;;;2.47;1.42;;;;;;;19.03;43.65;101855.78;5013869;28;20576;-48
2022/02/13 01:01:07;;;;;;;4.18;1.88;;;;;;;19.02;43.75;101854.97;5012170;28;20026;-49
2022/02/13 01:03:33;;;;;;;3.50;1.70;;;;;;;19.02;43.62;101846.22;5009841;28;20096;-45
2022/02/13 01:06:00;;;;;;;3.35;2.03;;;;;;;19.02;43.62;101848.84;5008546;28;20116;-40
2022/02/13 01:08:26;;;;;;;4.82;2.10;;;;;;;19.04;43.55;101846.88;5009109;28;20099;-48
2022/02/13 01:10:52;;;;;;;2.40;1.70;;;;;;;19.02;43.60;101846.22;5010235;28;20113;-43
2022/02/13 01:13:19;;;;;;;4.55;1.55;;;;;;;19.02;43.67;101843.56;5008321;28;20128;-49
2022/02/13 01:15:44;;;;;;;2.90;2.05;;;;;;;19.03;43.66;101842.59;5013896;28;20477;-41
2022/02/13 01:18:11;;;;;;;3.20;2.17;;;;;;;19.02;43.60;101843.56;5026328;28;20075;-49
2022/02/13 01:20:36;;;;;;;3.80;1.90;;;;;;;19.01;43.44;101831.38;5014827;28;20480;-44
2022/02/13 01:23:02;;;;;;;3.10;2.10;;;;;;;19.01;43.61;101829.53;5008649;28;20038;-44
2022/02/13 01:25:27;;;;;;;2.53;1.88;;;;;;;19.01;43.60;101831.38;5006187;28;20113;-45
2022/02/13 01:27:53;;;;;;;3.60;2.03;;;;;;;19.01;43.61;101834.00;5008433;28;20052;-43
2022/02/13 01:30:18;;;;;;;1.95;1.17;;;;;;;19.00;43.58;101827.91;5012921;28;20034;-42
2022/02/13 01:32:44;;;;;;;2.67;2.08;;;;;;;19.00;43.55;101830.53;5009367;28;20514;-44
2022/02/13 01:35:10;;;;;;;3.65;1.90;;;;;;;19.01;43.66;101831.38;4990695;28;20026;-50
2022/02/13 01:37:36;;;;;;;2.92;1.80;;;;;;;18.98;43.79;101823.78;5009110;28;20038;-43
2022/02/13 01:40:02;;;;;;;2.58;1.80;;;;;;;18.98;43.75;101823.78;5005949;28;20057;-43
2022/02/13 01:42:28;;;;;;;3.88;2.00;;;;;;;18.96;43.86;101823.94;5015979;28;20228;-40
2022/02/13 01:44:53;;;;;;;3.78;1.75;;;;;;;18.96;43.63;101823.09;5027656;28;20188;-49
2022/02/13 01:47:19;;;;;;;2.22;1.45;;;;;;;18.95;43.78;101811.72;5009189;28;20129;-45
2022/02/13 01:49:45;;;;;;;3.03;1.63;;;;;;;18.94;43.73;101819.81;5008662;28;20442;-46
2022/02/13 01:52:11;;;;;;;3.47;1.17;;;;;;;18.94;43.74;101819.81;5008019;28;20595;-48
2022/02/13 01:54:37;;;;;;;2.45;1.60;;;;;;;18.92;43.82;101812.06;5007238;28;20044;-49
2022/02/13 01:57:03;;;;;;;2.58;1.20;;;;;;;18.90;43.69;101812.22;5006036;28;20037;-50
2022/02/13 01:59:28;;;;;;;3.17;1.92;;;;;;;18.89;43.78;101807.97;5019065;28;20040;-43
2022/02/13 02:01:54;;;;;;;2.28;1.27;;;;;;;18.88;43.74;101800.19;5017212;28;20033;-46
2022/02/13 02:04:20;;;;;;;3.92;1.83;;;;;;;18.87;43.76;101804.66;5011850;28;20029;-47
2022/02/13 02:06:45;;;;;;;2.47;1.40;;;;;;;18.85;43.90;101796.06;5017736;28;20029;-43
2022/02/13 02:09:11;;;;;;;2.58;1.23;;;;;;;18.85;43.84;101796.06;5015407;28;20038;-45
2022/02/13 02:11:36;;;;;;;2.05;1.08;;;;;;;18.84;43.72;101793.59;5299318;22;20388;-45
2022/02/13 02:14:02;;;;;;;3.00;1.50;;;;;;;18.82;43.83;101788.50;5046840;28;20024;-44
2022/02/13 02:16:28;;;;;;;2.17;1.25;;;;;;;18.82;43.78;101790.31;5047229;28;20349;-44
2022/02/13 02:18:53;;;;;;;2.25;1.10;;;;;;;18.81;43.89;101778.91;5047461;28;20036;-49
2022/02/13 02:21:19;;;;;;;2.45;1.63;;;;;;;18.79;43.79;101772.97;5047481;28;20833;-45
2022/02/13 02:23:45;;;;;;;3.10;1.00;;;;;;;18.77;43.75;101777.59;5047308;28;20082;-45
2022/02/13 02:26:17;;;;;;;1.60;1.00;;;;;;;18.76;43.85;101770.66;5047576;28;20029;-43
2022/02/13 02:28:42;;;;;;;2.75;1.40;;;;;;;18.78;43.74;101763.41;5047288;28;20364;-44
2022/02/13 02:31:08;;;;;;;2.92;1.52;;;;;;;18.79;43.99;101766.88;5047237;28;20035;-47
2022/02/13 02:33:33;;;;;;;3.10;1.45;;;;;;;18.79;43.88;101767.69;5047077;28;20032;-45
2022/02/13 02:35:59;;;;;;;2.38;1.50;;;;;;;18.79;43.91;101758.94;5047288;28;20039;-42
2022/02/13 02:38:25;;;;;;;2.90;1.40;;;;;;;18.80;43.96;101772.00;5047320;28;20544;-46
2022/02/13 02:40:50;;;;;;;1.70;0.88;;;;;;;18.79;43.92;101764.22;5047076;28;20467;-46
2022/02/13 02:43:16;;;;;;;2.65;1.30;;;;;;;18.78;43.98;101762.59;5047273;28;20043;-42
2022/02/13 02:45:41;;;;;;;3.22;1.80;;;;;;;18.78;43.93;101758.13;5046853;28;20053;-45
2022/02/13 02:48:07;;;;;;;2.28;1.20;;;;;;;18.78;43.83;101759.94;5046909;28;20049;-45
2022/02/13 02:50:32;;;;;;;3.38;1.17;;;;;;;18.77;43.96;101763.56;5046943;28;20033;-45
2022/02/13 02:52:58;;;;;;;3.25;1.38;;;;;;;18.76;44.03;101762.75;5046803;28;20032;-42
2022/02/13 02:55:23;;;;;;;2.17;1.05;;;;;;;18.76;44.22;101756.66;5046977;28;20027;-49
2022/02/13 02:57:49;;;;;;;2.72;1.42;;;;;;;18.75;43.83;101753.19;5046962;28;20456;-45
2022/02/13 03:00:14;;;;;;;1.67;1.00;;;;;;;18.74;43.91;101753.34;5046633;28;20021;-43
2022/02/13 03:02:40;;;;;;;2.45;1.35;;;;;;;18.73;43.87;101754.34;5046632;28;20066;-43
2022/02/13 03:05:06;;;;;;;2.53;0.98;;;;;;;18.71;44.01;101756.31;5046841;28;20031;-50
2022/02/13 03:07:31;;;;;;;2.08;1.23;;;;;;;18.68;43.81;101757.47;5046554;28;20104;-50
2022/02/13 03:09:56;;;;;;;2.45;1.27;;;;;;;18.68;43.87;101757.47;5046386;28;20033;-43
2022/02/13 03:12:22;;;;;;;2.15;1.05;;;;;;;18.68;44.16;101746.91;5045985;28;20051;-47
2022/02/13 03:14:49;;;;;;;2.65;1.65;;;;;;;18.70;44.01;101754.66;5046528;28;20028;-46
2022/02/13 03:17:14;;;;;;;1.92;1.10;;;;;;;18.68;43.91;101744.28;5046615;28;20435;-43
2022/02/13 03:19:40;;;;;;;1.70;0.90;;;;;;;18.69;43.97;101756.47;5046726;28;20028;-44
2022/02/13 03:22:06;;;;;;;2.20;1.20;;;;;;;18.68;43.88;101752.19;5046338;28;20456;-42
2022/02/13 03:24:33;;;;;;;1.50;1.00;;;;;;;18.68;43.95;101751.38;5046589;28;20025;-49
2022/02/13 03:26:58;;;;;;;2.40;1.45;;;;;;;18.69;43.79;101755.66;5046318;28;20039;-46
2022/02/13 03:29:24;;;;;;;2.75;1.00;;;;;;;18.68;43.92;101754.81;5046560;28;20044;-47
2022/02/13 03:31:49;;;;;;;3.92;1.48;;;;;;;18.67;43.96;101750.53;5046329;28;20496;-46
2022/02/13 03:34:15;;;;;;;2.22;1.00;;;;;;;18.68;43.89;101754.00;5028186;28;20357;-45
2022/02/13 03:36:41;;;;;;;1.50;0.85;;;;;;;18.67;43.88;101750.53;5046242;28;20086;-43
2022/02/13 03:39:07;;;;;;;2.17;1.02;;;;;;;18.66;43.89;101762.09;5046372;28;20033;-46
2022/02/13 03:41:33;;;;;;;1.80;1.05;;;;;;;18.68;43.92;101759.28;5046237;28;20389;-43
2022/02/13 03:43:58;;;;;;;1.67;0.80;;;;;;;18.66;43.81;101759.44;5046219;28;20124;-42
2022/02/13 03:46:24;;;;;;;2.75;0.90;;;;;;;18.66;43.89;101754.16;5046151;28;20151;-48
2022/02/13 03:48:49;;;;;;;1.50;0.93;;;;;;;18.65;43.96;101755.16;5028140;28;20040;-45
2022/02/13 03:51:15;;;;;;;2.53;1.45;;;;;;;18.65;43.89;101757.81;5046333;28;20025;-48
2022/02/13 03:53:41;;;;;;;1.30;0.80;;;;;;;18.64;43.84;101750.88;5046066;28;20041;-45
2022/02/13 03:56:06;;;;;;;1.63;0.95;;;;;;;18.63;43.76;101749.22;5046049;28;20025;-47
2022/02/13 03:58:32;;;;;;;1.20;0.80;;;;;;;18.64;43.90;101752.69;5046265;28;20036;-48
2022/02/13 04:00:59;;;;;;;1.67;1.00;;;;;;;18.64;43.98;101752.69;5027952;28;20116;-49
2022/02/13 04:03:25;;;;;;;1.45;0.85;;;;;;;18.63;43.85;101737.84;5045948;28;20048;-46
2022/02/13 04:05:54;;;;;;;1.50;0.98;;;;;;;18.63;43.91;101732.56;5045944;28;20036;-48
2022/02/13 04:08:20;;;;;;;1.70;1.17;;;;;;;18.62;43.79;101736.19;5028277;28;20143;-45
2022/02/13 04:10:46;;;;;;;1.27;0.55;;;;;;;18.60;43.84;101739.00;5046375;28;20127;-45
2022/02/13 04:13:11;;;;;;;2.33;1.02;;;;;;;18.58;43.74;101736.50;5045823;28;20553;-47
2022/02/13 04:15:37;;;;;;;1.90;0.80;;;;;;;18.58;43.75;101735.66;5045782;28;20048;-53
2022/02/13 04:18:13;;;;;;;1.10;0.60;;;;;;;18.55;43.72;101728.06;5045779;28;20052;-43
2022/02/13 04:20:39;;;;;;;2.25;0.93;;;;;;;18.55;43.79;101734.19;5046176;28;20040;-46
2022/02/13 04:23:05;;;;;;;1.20;0.88;;;;;;;18.55;43.76;101725.44;5045728;28;20396;-48
2022/02/13 04:25:30;;;;;;;1.83;0.95;;;;;;;18.54;43.74;101729.06;5049175;28;20033;-51
2022/02/13 04:27:56;;;;;;;1.67;0.77;;;;;;;18.53;43.69;101727.41;5049366;28;20104;-50
2022/02/13 04:30:22;;;;;;;1.58;0.90;;;;;;;18.53;43.77;101724.78;5049484;28;20419;-44
2022/02/13 04:32:48;;;;;;;1.60;0.88;;;;;;;18.51;43.79;101724.94;5049554;28;20025;-49
2022/02/13 04:35:13;;;;;;;1.40;0.60;;;;;;;18.50;43.67;101719.81;5049368;28;20035;-44
2022/02/13 04:37:39;;;;;;;2.13;0.70;;;;;;;18.50;43.64;101720.66;5049577;28;20133;-48
2022/02/13 04:40:05;;;;;;;1.55;0.70;;;;;;;18.49;43.86;101718.19;5049339;28;20045;-50
2022/02/13 04:42:31;;;;;;;1.42;0.80;;;;;;;18.46;43.78;101716.69;5049121;28;20488;-49
2022/02/13 04:44:56;;;;;;;2.58;0.82;;;;;;;18.48;43.78;101719.16;5049030;28;20354;-51
2022/02/13 04:47:22;;;;;;;2.65;0.60;;;;;;;18.45;43.68;101709.75;5049244;28;20084;-49
2022/02/13 04:49:47;;;;;;;1.17;0.80;;;;;;;18.46;43.83;101713.22;5048713;28;20348;-47
2022/02/13 04:52:13;;;;;;;1.48;0.98;;;;;;;18.46;43.91;101715.88;5047083;28;20415;-43
2022/02/13 04:54:38;;;;;;;1.42;0.55;;;;;;;18.47;43.89;101713.06;5048530;28;20025;-47
2022/02/13 04:57:04;;;;;;;1.50;0.63;;;;;;;18.47;43.79;101709.59;5047217;28;20036;-43
2022/02/13 04:59:35;;;;;;;1.00;0.60;;;;;;;18.46;43.80;101705.31;5047038;28;20437;-42
2022/02/13 05:02:01;;;;;;;1.98;0.88;;;;;;;18.46;43.82;101700.84;5030021;28;20025;-44
2022/02/13 05:04:26;;;;;;;2.47;0.82;;;;;;;18.46;43.75;101700.03;5046956;28;20411;-42
2022/02/13 05:06:52;;;;;;;1.40;0.60;;;;;;;18.46;43.53;101700.03;5048521;28;20075;-42
2022/02/13 05:09:17;;;;;;;1.73;0.73;;;;;;;18.45;43.70;101703.66;5046649;28;20052;-43
2022/02/13 05:11:43;;;;;;;1.20;0.80;;;;;;;18.45;43.74;101703.66;5046467;28;20048;-46
2022/02/13 05:14:09;;;;;;;1.73;0.77;;;;;;;18.45;43.83;101703.66;5045931;28;20037;-44
2022/02/13 05:16:35;;;;;;;1.50;0.70;;;;;;;18.44;43.76;101700.19;5048506;28;20447;-48
2022/02/13 05:19:00;;;;;;;1.45;0.60;;;;;;;18.42;43.68;101699.56;5046692;28;20083;-45
2022/02/13 05:21:26;;;;;;;1.33;0.70;;;;;;;18.41;43.76;101708.47;5047287;28;20029;-42
2022/02/13 05:23:51;;;;;;;1.00;0.40;;;;;;;18.40;43.74;101704.19;5047342;28;20110;-46
2022/02/13 05:26:17;;;;;;;1.20;0.65;;;;;;;18.39;43.70;101694.63;5045851;28;20044;-47
2022/02/13 05:28:43;;;;;;;1.95;0.50;;;;;;;18.37;43.86;101686.06;5045050;28;20033;-46
2022/02/13 05:31:10;;;;;;;1.52;0.45;;;;;;;18.37;43.77;101691.31;5047383;28;20032;-47
2022/02/13 05:33:36;;;;;;;1.52;0.93;;;;;;;18.38;43.69;101697.44;5048188;28;20076;-46
2022/02/13 05:36:01;;;;;;;1.08;0.65;;;;;;;18.37;43.73;101696.59;5046205;28;20025;-46
2022/02/13 05:38:27;;;;;;;1.20;0.47;;;;;;;18.37;43.78;101701.88;5045619;28;20109;-47
2022/02/13 05:40:52;;;;;;;1.63;0.70;;;;;;;18.37;43.72;101699.25;5045585;28;20028;-41
2022/02/13 05:43:18;;;;;;;1.88;0.65;;;;;;;18.37;43.78;101701.06;5048476;28;20028;-48
2022/02/13 05:45:44;;;;;;;1.52;0.50;;;;;;;18.37;43.80;101704.53;5043070;28;20064;-49
2022/02/13 05:48:12;;;;;;;1.50;0.50;;;;;;;18.37;43.60;101709.78;5048133;28;20483;-47
2022/02/13 05:50:37;;;;;;;1.42;0.70;;;;;;;18.37;43.73;101706.34;5046832;28;20179;-51
2022/02/13 05:53:03;;;;;;;0.90;0.38;;;;;;;18.36;43.61;101710.78;5029173;28;20029;-44
2022/02/13 05:55:29;;;;;;;1.85;0.50;;;;;;;18.37;43.62;101711.63;5046136;28;20112;-46
2022/02/13 05:57:54;;;;;;;1.27;0.50;;;;;;;18.37;43.62;101715.06;5048195;28;20040;-47
2022/02/13 06:00:20;;;;;;;0.90;0.52;;;;;;;18.36;43.62;101712.59;5043393;28;20052;-45
2022/02/13 06:02:45;;;;;;;1.50;0.60;;;;;;;18.35;43.74;101717.06;5041150;28;20106;-47
2022/02/13 06:05:11;;;;;;;0.90;0.50;;;;;;;18.35;43.55;101713.59;5046422;28;20021;-43
2022/02/13 06:07:38;;;;;;;0.95;0.52;;;;;;;18.35;43.76;101726.78;5037476;28;20044;-43
2022/02/13 06:10:09;;;;;;;0.82;0.50;;;;;;;18.33;43.63;101716.38;5044217;28;20397;-47
2022/02/13 06:12:34;;;;;;;2.28;0.63;;;;;;;18.35;43.67;101716.22;5044770;28;20167;-48
2022/02/13 06:15:00;;;;;;;2.05;0.50;;;;;;;18.36;43.79;101720.50;5045091;28;20140;-40
2022/02/13 06:17:26;;;;;;;2.83;0.47;;;;;;;18.37;43.76;101724.81;5039644;28;20100;-43
2022/02/13 06:19:51;;;;;;;1.25;0.50;;;;;;;18.38;43.73;101723.81;5030435;28;20366;-45
2022/02/13 06:22:17;;;;;;;1.15;0.40;;;;;;;18.41;43.60;101726.13;5038487;28;20033;-45
2022/02/13 06:24:42;;;;;;;1.25;0.40;;;;;;;18.41;43.61;101729.59;5035948;28;20037;-46
2022/02/13 06:27:08;;;;;;;1.25;0.40;;;;;;;18.43;43.68;101729.41;5040487;28;20037;-43
2022/02/13 06:29:33;;;;;;;1.60;0.40;;;;;;;18.45;43.82;101728.25;5039101;28;20127;-43
2022/02/13 06:32:00;;;;;;;1.20;0.50;;;;;;;18.47;43.59;101736.00;5021799;28;20045;-46
2022/02/13 06:34:26;;;;;;;1.13;0.40;;;;;;;18.50;43.67;101727.75;5038611;28;20032;-46
2022/02/13 06:36:51;;;;;;;2.90;0.45;;;;;;;18.53;43.61;101735.34;5045351;28;20029;-46
2022/02/13 06:39:17;;;;;;;1.02;0.60;;;;;;;18.58;43.57;101733.03;5046850;28;20135;-44
2022/02/13 06:41:42;;;;;;;1.83;0.45;;;;;;;18.60;43.49;101739.00;5037586;28;20373;-48
2022/02/13 06:44:08;;;;;;;0.80;0.45;;;;;;;18.65;43.44;101735.84;5037560;28;20029;-49
2022/02/13 06:46:33;;;;;;;0.85;0.40;;;;;;;18.68;43.36;101732.88;5034701;28;20053;-48
2022/02/13 06:48:59;;;;;;;1.35;0.50;;;;;;;18.72;43.31;101737.66;5033148;28;20037;-43
2022/02/13 06:51:24;;;;;;;1.23;0.50;;;;;;;18.76;43.39;101746.09;5033461;28;20029;-43
2022/02/13 06:53:50;;;;;;;3.50;0.40;;;;;;;18.79;43.34;101743.94;5040648;28;20559;-48
2022/02/13 06:56:15;;;;;;;2.08;0.50;;;;;;;18.82;43.26;101743.59;5032579;28;20189;-50
2022/02/13 06:58:41;;;;;;;0.82;0.30;;;;;;;18.85;43.22;101745.09;5036119;28;20033;-43
2022/02/13 07:01:09;;;;;;;1.52;0.40;;;;;;;18.87;43.23;101743.09;5039250;28;20197;-42
2022/02/13 07:03:35;;;;;;;1.17;0.40;;;;;;;18.90;43.14;101754.13;5022026;28;20027;-42
2022/02/13 07:06:02;;;;;;;3.20;0.45;;;;;;;18.95;43.03;101750.16;5044712;28;20388;-49
2022/02/13 07:08:31;;;;;;;0.90;0.40;;;;;;;18.97;43.10;101751.63;5045800;28;20033;-43
2022/02/13 07:10:57;;;;;;;1.48;0.50;;;;;;;19.01;43.04;101757.41;5044237;28;20137;-45
2022/02/13 07:13:22;;;;;;;1.00;0.43;;;;;;;19.04;43.02;101744.69;5042784;28;20079;-43
2022/02/13 07:15:48;;;;;;;2.72;0.60;;;;;;;19.10;42.84;101753.75;5038756;28;20120;-43
2022/02/13 07:18:13;;;;;;;1.73;0.60;;;;;;;19.13;42.68;101748.13;5026002;28;20033;-43
2022/02/13 07:20:39;;;;;;;1.40;0.43;;;;;;;19.15;42.82;101748.78;5044194;28;20443;-46
2022/02/13 07:23:05;;;;;;;1.52;0.40;;;;;;;19.19;42.78;101753.56;5034708;28;20555;-48
2022/02/13 07:25:30;;;;;;;0.93;0.40;;;;;;;19.23;42.56;101751.41;5026762;28;20039;-46
2022/02/13 07:27:56;;;;;;;0.93;0.70;;;;;;;19.28;42.58;101748.28;5039708;28;20393;-43
2022/02/13 07:30:21;;;;;;;1.98;0.50;;;;;;;19.30;42.55;101741.00;5033078;28;20041;-48
2022/02/13 07:32:47;;;;;;;0.93;0.40;;;;;;;19.33;42.61;101744.13;5041225;28;20064;-44
2022/02/13 07:35:14;;;;;;;0.80;0.40;;;;;;;19.39;42.56;101746.06;5039348;28;20357;-46
2022/02/13 07:37:40;;;;;;;0.90;0.30;;;;;;;19.42;42.53;101752.81;5026355;28;20172;-43
2022/02/13 07:40:07;;;;;;;0.90;0.35;;;;;;;19.44;42.47;101748.19;5040402;28;20131;-43
2022/02/13 07:42:32;;;;;;;1.10;0.50;;;;;;;19.46;42.53;101732.97;5042592;28;20120;-44
2022/02/13 07:44:58;;;;;;;1.25;0.40;;;;;;;19.48;42.41;101744.22;5035561;28;20117;-43
2022/02/13 07:47:24;;;;;;;1.65;0.40;;;;;;;19.51;42.47;101739.44;5029142;28;20635;-46
2022/02/13 07:49:50;;;;;;;1.02;0.40;;;;;;;19.53;42.52;101745.38;5044045;28;20095;-45
2022/02/13 07:52:15;;;;;;;0.98;0.30;;;;;;;19.58;42.43;101736.09;5031246;28;20025;-45
2022/02/13 07:54:41;;;;;;;1.00;0.55;;;;;;;19.61;42.46;101738.41;5045535;28;20037;-41
2022/02/13 07:57:07;;;;;;;0.70;0.40;;;;;;;19.62;42.29;101746.16;5026825;28;20036;-43
2022/02/13 07:59:32;;;;;;;0.85;0.35;;;;;;;19.66;42.38;101741.34;5040884;28;20091;-44
2022/02/13 08:02:00;;;;;;;0.90;0.30;;;;;;;19.68;42.55;101739.38;5042510;28;20040;-42
2022/02/13 08:04:26;;;;;;;0.98;0.30;;;;;;;19.70;42.39;101738.19;5027700;28;20112;-43
2022/02/13 08:06:51;;;;;;;0.73;0.40;;;;;;;19.72;42.38;101736.22;5038305;28;20060;-44
2022/02/13 08:09:17;;;;;;;1.50;0.50;;;;;;;19.74;42.32;101730.75;5037183;28;20488;-43
2022/02/13 08:11:42;;;;;;;0.63;0.30;;;;;;;19.77;42.46;101733.03;5040003;28;20116;-44
2022/02/13 08:14:08;;;;;;;0.68;0.20;;;;;;;19.81;42.24;101729.06;5037001;28;20047;-50
2022/02/13 08:16:33;;;;;;;1.35;0.40;;;;;;;19.83;42.39;101721.78;5044709;28;20509;-43
2022/02/13 08:18:59;;;;;;;0.75;0.40;;;;;;;19.85;42.39;101728.50;5048397;28;20132;-48
2022/02/13 08:21:24;;;;;;;2.03;0.40;;;;;;;19.88;42.23;101729.97;5044976;28;20035;-44
2022/02/13 08:23:50;;;;;;;1.77;0.50;;;;;;;19.91;42.21;101723.50;5047876;28;20029;-48
2022/02/13 08:26:17;;;;;;;1.45;0.40;;;;;;;19.92;42.31;101730.44;5048873;28;20491;-43
2022/02/13 08:28:42;;;;;;;1.10;0.30;;;;;;;19.94;42.30;101721.34;5044980;28;20033;-39
2022/02/13 08:31:08;;;;;;;0.80;0.30;;;;;;;19.97;42.40;101728.94;5033659;28;20068;-43
2022/02/13 08:33:34;;;;;;;0.60;0.20;;;;;;;20.00;42.46;101717.19;5045831;28;20021;-41
2022/02/13 08:35:59;;;;;;;1.10;0.40;;;;;;;20.03;42.39;101711.53;5035441;28;20488;-45
2022/02/13 08:38:25;;;;;;;1.08;0.30;;;;;;;20.06;42.16;101717.31;5040887;28;20029;-43
2022/02/13 08:40:51;;;;;;;0.70;0.30;;;;;;;20.09;42.10;101710.84;5036600;28;20082;-48
2022/02/13 08:43:18;;;;;;;1.35;0.30;;;;;;;20.11;42.15;101714.13;5028700;28;20555;-45
2022/02/13 08:45:45;;;;;;;0.65;0.25;;;;;;;20.12;42.01;101706.00;5017762;28;20076;-47
2022/02/13 08:48:11;;;;;;;1.60;0.30;;;;;;;20.13;42.21;101710.31;5038034;28;20025;-43
2022/02/13 08:50:37;;;;;;;0.93;0.40;;;;;;;20.14;42.25;101704.00;5044125;28;20033;-52
2022/02/13 08:53:02;;;;;;;0.82;0.30;;;;;;;20.15;42.30;101705.66;5029428;28;20091;-43
2022/02/13 08:55:28;;;;;;;0.88;0.30;;;;;;;20.16;42.42;101702.03;5039933;28;20548;-42
2022/02/13 08:57:53;;;;;;;1.08;0.40;;;;;;;20.18;42.44;101701.84;5045568;28;20029;-46
2022/02/13 09:00:19;;;;;;;5.03;0.50;;;;;;;20.17;42.68;101706.31;5045693;28;20025;-42
2022/02/13 09:02:45;;;;;;;1.05;0.40;;;;;;;20.18;42.50;101710.59;5043356;28;20029;-45
2022/02/13 09:05:11;;;;;;;3.42;0.47;;;;;;;20.19;42.68;101716.72;5044144;28;20102;-44
2022/02/13 09:07:41;;;;;;;1.08;0.38;;;;;;;20.19;42.74;101719.38;5035076;28;20021;-44
2022/02/13 09:10:09;;;;;;;0.70;0.30;;;;;;;20.17;42.36;101708.97;5020143;28;20148;-50
2022/02/13 09:12:36;;;;;;;0.70;0.30;;;;;;;20.17;42.53;101710.78;5046648;28;20490;-49
2022/02/13 09:15:02;;;;;;;1.00;0.30;;;;;;;20.16;42.63;101712.59;5045669;28;20477;-43
2022/02/13 09:17:27;;;;;;;0.90;0.30;;;;;;;20.16;42.45;101711.78;5045511;28;20033;-49
2022/02/13 09:19:53;;;;;;;0.85;0.55;;;;;;;20.14;42.68;101711.94;5042162;28;20059;-40
2022/02/13 09:22:18;;;;;;;2.22;0.30;;;;;;;20.13;42.62;101707.66;5036826;28;20021;-44
2022/02/13 09:24:44;;;;;;;1.13;0.30;;;;;;;20.13;42.70;101706.84;5044133;28;20519;-42
2022/02/13 09:27:10;;;;;;;5.15;0.32;;;;;;;20.12;42.81;101710.47;5045179;28;20025;-43
2022/02/13 09:29:36;;;;;;;3.45;0.52;;;;;;;20.12;42.94;101710.47;5042727;28;20064;-44
2022/02/13 09:32:03;;;;;;;1.65;0.30;;;;;;;20.13;43.02;101714.78;5038419;28;20029;-37
2022/02/13 09:34:29;;;;;;;4.05;0.40;;;;;;;20.07;42.23;101713.66;5027338;28;20039;-45
2022/02/13 09:36:55;;;;;;;0.98;0.30;;;;;;;20.04;42.67;101703.44;5040776;28;20534;-43
2022/02/13 09:39:22;;;;;;;2.35;0.30;;;;;;;20.00;42.93;101707.41;5041859;28;20127;-44
2022/02/13 09:41:49;;;;;;;9.20;0.50;;;;;;;19.95;43.41;101704.47;5033115;28;20567;-50
2022/02/13 09:44:15;;;;;;;3.03;0.40;;;;;;;19.97;43.97;101706.94;5042271;28;20056;-55
2022/02/13 09:46:41;;;;;;;1.40;0.30;;;;;;;19.97;44.01;101697.19;5038556;28;20126;-43
2022/02/13 09:49:07;;;;;;;3.20;0.32;;;;;;;19.97;44.44;101697.19;5043508;28;20033;-41
2022/02/13 09:51:33;;;;;;;3.45;0.82;;;;;;;19.95;44.60;101699.19;5043616;28;20518;-45
2022/02/13 09:53:59;;;;;;;3.60;0.50;;;;;;;19.95;44.78;101698.38;5034036;28;20305;-47
2022/02/13 09:56:25;;;;;;;1.23;0.30;;;;;;;19.94;44.69;101702.00;5026137;28;20171;-46
2022/02/13 09:58:51;;;;;;;1.52;0.30;;;;;;;19.94;44.61;101696.72;5039803;28;20581;-43
2022/02/13 10:01:17;;;;;;;3.05;0.30;;;;;;;19.91;44.64;101695.25;5017790;28;20032;-46
2022/02/13 10:03:46;;;;;;;2.78;0.30;;;;;;;19.89;44.19;101692.78;5042120;28;20028;-45
2022/02/13 10:06:12;;;;;;;2.55;0.40;;;;;;;19.90;44.39;101688.31;5040913;28;20044;-48
2022/02/13 10:08:39;;;;;;;2.90;0.40;;;;;;;19.89;44.50;101682.19;5044678;28;20036;-47
2022/02/13 10:11:23;;;;;;;1.75;0.30;;;;;;;19.85;44.56;101677.44;5044645;28;20037;-42
2022/02/13 10:13:50;;;;;;;2.85;0.30;;;;;;;19.87;44.86;101678.91;5038971;28;20172;-43
2022/02/13 10:16:28;;;;;;;6.07;0.40;;;;;;;19.88;44.62;101682.38;5038616;28;20021;-42
2022/02/13 10:18:56;;;;;;;2.83;0.75;;;;;;;19.89;44.73;101684.84;5016739;28;20047;-45
2022/02/13 10:21:29;;;;;;;1.00;0.30;;;;;;;19.88;44.43;101677.91;5011296;28;20048;-47
2022/02/13 10:24:18;;;;;;;2.25;0.20;;;;;;;19.88;44.47;101666.50;5029918;28;20385;-48
2022/02/13 10:26:45;;;;;;;4.18;0.30;;;;;;;19.89;44.57;101665.50;5023841;28;20480;-44
2022/02/13 10:29:12;;;;;;;1.85;0.30;;;;;;;19.89;44.42;101661.03;5047382;28;20065;-45
2022/02/13 10:31:39;;;;;;;3.38;0.40;;;;;;;19.91;44.48;101657.41;5033384;28;20038;-43
2022/02/13 10:34:04;;;;;;;4.68;0.28;;;;;;;19.89;44.29;101641.69;5040791;28;20060;-45
2022/02/13 10:36:38;;;;;;;5.70;0.38;;;;;;;19.88;44.32;101629.47;5040112;28;20036;-50
2022/02/13 10:39:18;;;;;;;6.72;0.40;;;;;;;19.87;44.46;101627.84;5027332;28;20118;-50
2022/02/13 10:41:44;;;;;;;2.17;0.38;;;;;;;19.87;44.02;101638.41;5021566;28;20496;-42
2022/02/13 10:44:10;;;;;;;2.03;0.30;;;;;;;19.86;43.75;101626.19;5046584;28;20032;-40
2022/02/13 10:46:36;;;;;;;6.93;0.60;;;;;;;19.85;43.86;101630.66;5046456;28;20057;-47
2022/02/13 10:49:04;;;;;;;4.00;0.40;;;;;;;19.86;44.17;101620.91;5042666;28;20476;-43
2022/02/13 10:51:32;;;;;;;4.88;0.40;;;;;;;19.86;44.38;101618.25;5042438;28;20057;-43
2022/02/13 10:53:58;;;;;;;3.88;0.30;;;;;;;19.89;44.46;101618.72;5040834;28;20455;-43
2022/02/13 10:56:24;;;;;;;2.03;0.30;;;;;;;19.88;44.60;101613.59;5046587;28;20028;-40
2022/02/13 10:58:55;;;;;;;4.22;0.40;;;;;;;19.82;44.31;101609.06;5043576;28;20431;-41
2022/02/13 11:01:22;;;;;;;1.90;0.50;;;;;;;19.75;41.98;101602.81;5045711;28;20025;-42
2022/02/13 11:03:48;;;;;;;4.95;0.70;;;;;;;19.71;39.79;101596.25;5035523;28;20051;-44
2022/02/13 11:06:15;;;;;;;2.42;0.50;;;;;;;19.68;39.50;101593.97;5026828;28;20033;-45
2022/02/13 11:08:51;;;;;;;2.70;0.40;;;;;;;19.64;39.45;101580.25;5041683;28;20327;-42
2022/02/13 11:11:19;;;;;;;2.35;0.50;;;;;;;19.65;39.45;101576.63;5045936;28;20110;-41
2022/02/13 11:13:45;;;;;;;2.85;0.43;;;;;;;19.63;39.22;101562.75;5044579;28;20061;-47
2022/02/13 11:16:34;;;;;;;2.22;0.50;;;;;;;19.58;38.92;101564.28;5009757;28;20037;-42
2022/02/13 11:19:11;;;;;;;1.77;0.35;;;;;;;19.57;39.73;101566.09;5037871;28;20033;-45